createdAt,value
2022-10-18T00:01:05.800Z,14.50
2022-10-18T00:03:40.115Z,13.90
2022-10-18T00:06:09.354Z,14.10
2022-10-18T00:08:38.843Z,15.00
2022-10-18T00:11:08.080Z,14.60
2022-10-18T00:13:36.730Z,14.20
2022-10-18T00:16:09.802Z,14.20
2022-10-18T00:18:37.668Z,14.10
2022-10-18T00:21:15.793Z,14.40
2022-10-18T00:23:45.297Z,13.90
2022-10-18T00:26:22.032Z,13.90
2022-10-18T00:28:58.690Z,14.60
2022-10-18T00:31:31.520Z,14.40
2022-10-18T00:34:03.644Z,14.10
2022-10-18T00:36:34.280Z,14.40
2022-10-18T00:39:04.440Z,14.90
2022-10-18T00:41:34.613Z,15.00
2022-10-18T00:44:07.329Z,15.40
2022-10-18T00:46:37.519Z,14.40
2022-10-18T00:49:17.659Z,14.90
2022-10-18T00:51:53.723Z,14.10
2022-10-18T00:54:22.028Z,14.80
2022-10-18T00:56:50.011Z,13.90
2022-10-18T00:59:18.994Z,13.70
2022-10-18T01:01:47.063Z,13.60
2022-10-18T01:04:17.283Z,13.50
2022-10-18T01:07:23.921Z,13.40
2022-10-18T01:10:10.215Z,14.30
2022-10-18T01:13:15.189Z,13.90
2022-10-18T01:15:59.068Z,13.50
2022-10-18T01:18:57.774Z,14.20
2022-10-18T01:21:50.330Z,14.30
2022-10-18T01:24:31.103Z,13.00
2022-10-18T01:27:17.207Z,13.70
2022-10-18T01:30:03.579Z,14.60
2022-10-18T01:32:45.729Z,14.80
2022-10-18T01:35:30.016Z,13.60
2022-10-18T01:38:01.634Z,13.80
2022-10-18T01:40:30.429Z,14.40
2022-10-18T01:42:58.337Z,15.20
2022-10-18T01:45:26.884Z,14.70
2022-10-18T01:47:55.635Z,12.90
2022-10-18T01:50:36.516Z,13.80
2022-10-18T01:53:04.348Z,13.10
2022-10-18T01:55:41.790Z,13.70
2022-10-18T01:58:26.585Z,13.30
2022-10-18T02:01:05.511Z,13.40
2022-10-18T02:03:36.565Z,13.80
2022-10-18T02:06:16.792Z,13.30
2022-10-18T02:08:51.111Z,12.90
2022-10-18T02:11:18.915Z,11.40
2022-10-18T02:13:52.066Z,11.30
2022-10-18T02:16:24.465Z,12.40
2022-10-18T02:18:57.971Z,11.90
2022-10-18T02:21:28.275Z,12.40
2022-10-18T02:23:58.587Z,12.50
2022-10-18T02:26:26.756Z,12.20
2022-10-18T02:28:55.606Z,10.90
2022-10-18T02:31:36.612Z,11.90
2022-10-18T02:34:29.166Z,11.70
2022-10-18T02:36:59.766Z,11.70
2022-10-18T02:39:31.988Z,12.00
2022-10-18T02:42:00.031Z,12.40
2022-10-18T02:44:28.007Z,11.80
2022-10-18T02:46:55.876Z,11.50
2022-10-18T02:49:23.670Z,11.70
2022-10-18T02:51:51.502Z,11.60
2022-10-18T02:54:19.296Z,10.90
2022-10-18T02:56:47.064Z,11.40
2022-10-18T02:59:14.940Z,11.80
2022-10-18T03:01:42.945Z,11.50
2022-10-18T03:04:10.721Z,11.80
2022-10-18T03:06:38.502Z,12.10
2022-10-18T03:09:07.066Z,11.10
2022-10-18T03:11:34.881Z,12.40
2022-10-18T03:14:02.631Z,12.50
2022-10-18T03:16:30.388Z,13.30
2022-10-18T03:18:58.253Z,13.00
2022-10-18T03:21:26.526Z,13.00
2022-10-18T03:23:54.326Z,14.20
2022-10-18T03:26:22.164Z,14.40
2022-10-18T03:28:49.924Z,13.80
2022-10-18T03:31:17.745Z,14.40
2022-10-18T03:33:46.403Z,14.00
2022-10-18T03:36:14.961Z,13.30
2022-10-18T03:38:42.828Z,14.10
2022-10-18T03:41:10.792Z,14.20
2022-10-18T03:43:38.566Z,12.80
2022-10-18T03:46:06.336Z,13.60
2022-10-18T03:48:34.071Z,14.80
2022-10-18T03:51:01.904Z,13.50
2022-10-18T03:53:29.801Z,13.40
2022-10-18T03:55:57.664Z,13.70
2022-10-18T03:58:25.530Z,13.50
2022-10-18T04:00:55.113Z,12.80
2022-10-18T04:03:23.620Z,12.90
2022-10-18T04:05:51.608Z,12.70
2022-10-18T04:08:19.636Z,13.10
2022-10-18T04:10:47.466Z,12.80
2022-10-18T04:13:15.230Z,13.60
2022-10-18T04:15:43.503Z,13.90
2022-10-18T04:18:11.290Z,13.90
2022-10-18T04:20:39.140Z,14.70
2022-10-18T04:23:06.963Z,15.70
2022-10-18T04:25:34.931Z,14.60
2022-10-18T04:28:04.787Z,14.20
2022-10-18T04:30:32.568Z,15.10
2022-10-18T04:33:00.460Z,14.10
2022-10-18T04:35:28.618Z,13.50
2022-10-18T04:37:56.519Z,14.50
2022-10-18T04:40:24.344Z,15.50
2022-10-18T04:42:52.146Z,14.30
2022-10-18T04:45:19.966Z,15.10
2022-10-18T04:47:47.758Z,13.90
2022-10-18T04:50:15.608Z,14.20
2022-10-18T04:52:43.468Z,13.20
2022-10-18T04:55:11.363Z,13.40
2022-10-18T04:57:39.207Z,14.40
2022-10-18T05:00:07.396Z,12.10
2022-10-18T05:02:35.318Z,12.50
2022-10-18T05:05:03.533Z,13.30
2022-10-18T05:07:31.492Z,12.60
2022-10-18T05:09:59.251Z,13.10
2022-10-18T05:12:27.041Z,12.80
2022-10-18T05:14:56.798Z,13.80
2022-10-18T05:17:24.713Z,14.10
2022-10-18T05:19:52.459Z,14.80
2022-10-18T05:22:20.341Z,13.60
2022-10-18T05:24:48.310Z,14.00
2022-10-18T05:27:16.385Z,13.40
2022-10-18T05:29:44.220Z,13.80
2022-10-18T05:32:12.003Z,14.00
2022-10-18T05:34:39.833Z,14.80
2022-10-18T05:37:07.890Z,12.40
2022-10-18T05:39:37.471Z,14.00
2022-10-18T05:42:06.296Z,14.30
2022-10-18T05:44:34.317Z,13.90
2022-10-18T05:47:02.225Z,14.80
2022-10-18T05:49:30.027Z,13.00
2022-10-18T05:51:57.824Z,13.50
2022-10-18T05:54:25.674Z,13.30
2022-10-18T05:56:53.557Z,14.10
2022-10-18T05:59:21.583Z,12.90
2022-10-18T06:01:49.353Z,14.10
2022-10-18T06:04:18.069Z,13.50
2022-10-18T06:06:46.060Z,14.50
2022-10-18T06:09:13.929Z,14.00
2022-10-18T06:11:41.785Z,14.70
2022-10-18T06:14:09.866Z,14.90
2022-10-18T06:19:10.494Z,15.30
2022-10-18T06:21:38.174Z,15.90
2022-10-18T06:24:06.421Z,15.90
2022-10-18T06:26:34.324Z,15.70
2022-10-18T06:29:02.229Z,17.20
2022-10-18T06:31:30.102Z,17.60
2022-10-18T06:33:58.483Z,18.90
2022-10-18T06:36:26.456Z,17.30
2022-10-18T06:38:56.169Z,17.10
2022-10-18T06:41:24.182Z,17.30
2022-10-18T06:43:57.528Z,18.60
2022-10-18T06:46:26.334Z,20.20
2022-10-18T06:48:54.135Z,21.10
2022-10-18T06:51:21.908Z,20.20
2022-10-18T06:53:59.737Z,20.70
2022-10-18T06:56:38.206Z,19.50
2022-10-18T06:59:06.090Z,20.30
2022-10-18T07:01:34.150Z,20.70
2022-10-18T07:04:02.126Z,20.30
2022-10-18T07:06:29.984Z,19.00
2022-10-18T07:08:57.755Z,21.60
2022-10-18T07:11:27.085Z,20.60
2022-10-18T07:14:00.868Z,21.40
2022-10-18T07:18:56.771Z,21.80
2022-10-18T07:21:26.138Z,21.50
2022-10-18T07:23:55.121Z,23.10
2022-10-18T07:26:31.428Z,21.90
2022-10-18T07:29:10.622Z,21.70
2022-10-18T07:31:39.134Z,22.90
2022-10-18T07:34:08.626Z,21.70
2022-10-18T07:36:36.483Z,20.60
2022-10-18T07:39:04.832Z,20.40
2022-10-18T07:41:34.230Z,20.70
2022-10-18T07:44:02.952Z,20.30
2022-10-18T07:46:31.989Z,20.20
2022-10-18T07:49:00.005Z,19.00
2022-10-18T07:51:28.189Z,19.20
2022-10-18T07:53:56.024Z,20.30
2022-10-18T07:56:23.815Z,21.20
2022-10-18T07:58:54.102Z,22.20
2022-10-18T08:01:23.929Z,21.60
2022-10-18T08:03:53.057Z,20.60
2022-10-18T08:06:22.694Z,23.00
2022-10-18T08:08:50.640Z,23.50
2022-10-18T08:11:22.540Z,24.00
2022-10-18T08:13:51.334Z,22.50
2022-10-18T08:16:23.009Z,21.30
2022-10-18T08:18:51.553Z,20.10
2022-10-18T08:21:21.064Z,18.50
2022-10-18T08:23:49.959Z,18.40
2022-10-18T08:26:20.682Z,18.90
2022-10-18T08:28:58.184Z,18.90
2022-10-18T08:31:31.541Z,22.20
2022-10-18T08:34:00.111Z,19.90
2022-10-18T08:36:28.112Z,20.50
2022-10-18T08:38:55.867Z,22.60
2022-10-18T08:41:38.537Z,22.50
2022-10-18T08:44:30.256Z,24.40
2022-10-18T08:47:05.941Z,25.40
2022-10-18T08:49:47.005Z,27.20
2022-10-18T08:52:34.119Z,27.10
2022-10-18T08:55:10.424Z,26.80
2022-10-18T08:57:38.265Z,27.30
2022-10-18T09:00:22.315Z,26.60
2022-10-18T09:03:18.582Z,26.50
2022-10-18T09:06:01.628Z,26.10
2022-10-18T09:08:41.447Z,26.60
2022-10-18T09:11:21.139Z,25.80
2022-10-18T09:14:03.995Z,27.10
2022-10-18T09:17:01.390Z,27.50
2022-10-18T09:19:55.738Z,26.70
2022-10-18T09:25:16.227Z,28.50
2022-10-18T09:28:01.254Z,28.70
2022-10-18T09:30:42.008Z,28.20
2022-10-18T09:33:32.469Z,29.00
2022-10-18T09:36:03.541Z,28.30
2022-10-18T09:38:45.453Z,26.60
2022-10-18T09:41:26.195Z,26.80
2022-10-18T09:44:12.467Z,25.90
2022-10-18T09:46:45.842Z,26.50
2022-10-18T09:49:22.463Z,28.80
2022-10-18T09:51:53.627Z,25.50
2022-10-18T09:54:31.070Z,26.10
2022-10-18T09:57:11.455Z,24.90
2022-10-18T09:59:51.753Z,24.60
2022-10-18T10:02:22.619Z,24.50
2022-10-18T10:04:51.566Z,24.50
2022-10-18T10:07:35.446Z,22.80
2022-10-18T10:10:13.737Z,22.20
2022-10-18T10:12:42.191Z,21.40
2022-10-18T10:15:22.993Z,21.60
2022-10-18T10:17:55.325Z,21.20
2022-10-18T10:20:42.117Z,20.80
2022-10-18T10:23:36.614Z,20.90
2022-10-18T10:26:29.152Z,20.80
2022-10-18T10:28:57.054Z,19.70
2022-10-18T10:31:25.358Z,19.90
2022-10-18T10:34:03.349Z,21.10
2022-10-18T10:36:33.571Z,19.50
2022-10-18T10:39:11.822Z,19.40
2022-10-18T10:41:41.574Z,19.20
2022-10-18T10:44:20.768Z,19.10
2022-10-18T10:46:50.527Z,18.00
2022-10-18T10:49:41.177Z,17.70
2022-10-18T10:52:28.759Z,19.30
2022-10-18T10:55:17.011Z,18.00
2022-10-18T10:57:48.688Z,18.40
2022-10-18T11:00:38.754Z,17.80
2022-10-18T11:03:27.854Z,17.60
2022-10-18T11:05:58.870Z,16.90
2022-10-18T11:08:41.621Z,18.00
2022-10-18T11:11:27.799Z,17.70
2022-10-18T11:14:26.592Z,17.40
2022-10-18T11:17:27.414Z,16.40
2022-10-18T11:20:07.439Z,16.70
2022-10-18T11:22:58.720Z,16.10
2022-10-18T11:25:46.256Z,16.40
2022-10-18T11:28:26.285Z,16.30
2022-10-18T11:31:15.241Z,15.00
2022-10-18T11:34:07.799Z,14.10
2022-10-18T11:36:54.732Z,14.90
2022-10-18T11:39:46.003Z,14.20
2022-10-18T11:42:40.101Z,14.40
2022-10-18T11:48:19.774Z,13.30
2022-10-18T11:51:05.739Z,13.10
2022-10-18T11:53:39.613Z,13.30
2022-10-18T11:56:27.632Z,12.30
2022-10-18T11:59:27.595Z,12.80
2022-10-18T12:02:03.533Z,12.10
2022-10-18T12:04:48.977Z,11.30
2022-10-18T12:07:32.519Z,11.30
2022-10-18T12:10:02.650Z,10.30
2022-10-18T12:12:42.038Z,11.20
2022-10-18T12:15:22.952Z,10.30
2022-10-18T12:17:55.095Z,10.30
2022-10-18T12:20:35.375Z,10.50
2022-10-18T12:23:12.643Z,10.20
2022-10-18T12:25:45.706Z,9.80
2022-10-18T12:28:29.139Z,12.20
2022-10-18T12:31:20.672Z,10.50
2022-10-18T12:33:57.014Z,9.70
2022-10-18T12:36:40.184Z,9.30
2022-10-18T12:39:21.562Z,9.30
2022-10-18T12:41:57.406Z,9.50
2022-10-18T12:44:33.274Z,9.20
2022-10-18T12:47:04.688Z,9.70
2022-10-18T12:49:33.612Z,10.10
2022-10-18T12:52:21.817Z,9.10
2022-10-18T12:55:15.158Z,8.90
2022-10-18T12:57:53.728Z,9.20
2022-10-18T13:00:30.256Z,9.40
2022-10-18T13:03:10.208Z,8.50
2022-10-18T13:05:55.711Z,9.00
2022-10-18T13:08:27.232Z,9.20
2022-10-18T13:11:10.248Z,8.80
2022-10-18T13:14:06.012Z,8.70
2022-10-18T13:16:59.971Z,9.10
2022-10-18T13:19:39.691Z,9.20
2022-10-18T13:22:28.229Z,8.60
2022-10-18T13:25:26.226Z,8.40
2022-10-18T13:28:02.142Z,8.90
2022-10-18T13:30:43.058Z,8.50
2022-10-18T13:33:20.199Z,8.30
2022-10-18T13:36:04.559Z,8.70
2022-10-18T13:38:40.478Z,8.90
2022-10-18T13:41:12.487Z,8.80
2022-10-18T13:43:52.954Z,8.30
2022-10-18T13:46:25.652Z,7.80
2022-10-18T13:49:00.460Z,8.40
2022-10-18T13:51:46.775Z,8.10
2022-10-18T13:54:38.834Z,8.10
2022-10-18T13:57:35.894Z,9.50
2022-10-18T14:00:03.709Z,7.70
2022-10-18T14:03:00.190Z,9.00
2022-10-18T14:06:07.894Z,8.60
2022-10-18T14:08:40.328Z,7.70
2022-10-18T14:11:22.658Z,7.90
2022-10-18T14:14:34.237Z,8.80
2022-10-18T14:17:17.641Z,8.00
2022-10-18T14:20:02.170Z,7.20
2022-10-18T14:22:55.212Z,7.30
2022-10-18T14:25:31.658Z,8.30
2022-10-18T14:28:31.289Z,7.90
2022-10-18T14:31:13.409Z,7.90
2022-10-18T14:33:48.334Z,8.00
2022-10-18T14:36:21.946Z,8.30
2022-10-18T14:41:26.958Z,8.50
2022-10-18T14:44:11.869Z,8.70
2022-10-18T14:46:52.029Z,8.90
2022-10-18T14:49:21.204Z,8.70
2022-10-18T14:51:52.814Z,8.60
2022-10-18T14:54:31.892Z,8.30
2022-10-18T14:57:02.259Z,9.00
2022-10-18T14:59:34.338Z,8.90
2022-10-18T15:02:12.105Z,9.30
2022-10-18T15:04:40.083Z,9.00
2022-10-18T15:07:15.732Z,8.90
2022-10-18T15:09:44.691Z,9.70
2022-10-18T15:12:15.623Z,10.60
2022-10-18T15:14:44.508Z,10.40
2022-10-18T15:17:19.114Z,12.60
2022-10-18T15:19:55.343Z,12.70
2022-10-18T15:22:32.325Z,12.40
2022-10-18T15:25:31.554Z,12.80
2022-10-18T15:28:01.282Z,14.40
2022-10-18T15:30:38.254Z,14.40
2022-10-18T15:33:10.601Z,14.00
2022-10-18T15:35:39.524Z,12.90
2022-10-18T15:38:24.571Z,13.00
2022-10-18T15:40:53.271Z,12.50
2022-10-18T15:43:24.177Z,12.30
2022-10-18T15:45:58.728Z,12.60
2022-10-18T15:48:42.341Z,13.00
2022-10-18T15:51:47.967Z,12.70
2022-10-18T15:54:19.808Z,13.50
2022-10-18T15:56:47.516Z,13.10
2022-10-18T15:59:22.970Z,14.40
2022-10-18T16:01:50.906Z,34.70
2022-10-18T16:04:25.747Z,16.50
2022-10-18T16:06:55.667Z,12.70
2022-10-18T16:09:27.045Z,13.10
2022-10-18T16:11:57.184Z,12.80
2022-10-18T16:14:26.478Z,13.10
2022-10-18T16:16:56.567Z,12.10
2022-10-18T16:19:24.345Z,13.70
2022-10-18T16:21:56.051Z,13.20
2022-10-18T16:24:23.922Z,12.90
2022-10-18T16:26:53.181Z,12.60
2022-10-18T16:29:25.871Z,13.90
2022-10-18T16:31:57.170Z,16.60
2022-10-18T16:34:27.179Z,14.00
2022-10-18T16:36:55.221Z,12.40
2022-10-18T16:39:24.277Z,13.10
2022-10-18T16:41:52.047Z,12.30
2022-10-18T16:44:19.987Z,12.00
2022-10-18T16:46:51.053Z,12.40
2022-10-18T16:49:24.688Z,12.90
2022-10-18T16:51:54.363Z,13.20
2022-10-18T16:54:22.928Z,13.30
2022-10-18T16:56:51.225Z,14.40
2022-10-18T16:59:27.394Z,12.60
2022-10-18T17:01:55.278Z,12.60
2022-10-18T17:04:23.301Z,14.20
2022-10-18T17:06:52.741Z,15.50
2022-10-18T17:09:20.560Z,14.00
2022-10-18T17:11:48.345Z,13.90
2022-10-18T17:14:16.081Z,14.90
2022-10-18T17:16:45.644Z,15.40
2022-10-18T17:19:16.742Z,16.30
2022-10-18T17:21:44.463Z,15.40
2022-10-18T17:24:12.284Z,16.00
2022-10-18T17:26:40.021Z,14.40
2022-10-18T17:29:08.445Z,14.90
2022-10-18T17:31:36.506Z,15.50
2022-10-18T17:34:04.788Z,15.30
2022-10-18T17:36:33.671Z,16.80
2022-10-18T17:39:02.305Z,15.90
2022-10-18T17:41:30.716Z,15.50
2022-10-18T17:43:58.583Z,16.40
2022-10-18T17:46:26.500Z,17.40
2022-10-18T17:48:54.307Z,18.00
2022-10-18T17:51:22.653Z,18.30
2022-10-18T17:53:51.042Z,16.70
2022-10-18T17:56:18.949Z,17.20
2022-10-18T17:58:51.016Z,16.00
2022-10-18T18:01:22.980Z,17.10
2022-10-18T18:03:55.716Z,17.20
2022-10-18T18:06:36.841Z,16.80
2022-10-18T18:09:14.224Z,16.50
2022-10-18T18:11:44.553Z,15.00
2022-10-18T18:14:12.404Z,16.50
2022-10-18T18:16:42.888Z,16.00
2022-10-18T18:19:11.398Z,15.70
2022-10-18T18:21:40.452Z,15.60
2022-10-18T18:24:10.519Z,16.60
2022-10-18T18:26:39.665Z,16.30
2022-10-18T18:29:07.781Z,17.80
2022-10-18T18:31:40.292Z,18.20
2022-10-18T18:34:10.801Z,15.90
2022-10-18T18:36:39.147Z,16.20
2022-10-18T18:39:08.852Z,17.00
2022-10-18T18:41:37.969Z,16.80
2022-10-18T18:44:06.389Z,16.60
2022-10-18T18:46:38.845Z,16.40
2022-10-18T18:49:08.178Z,17.00
2022-10-18T18:51:40.336Z,18.90
2022-10-18T18:54:09.875Z,17.40
2022-10-18T18:56:38.493Z,17.80
2022-10-18T18:59:06.469Z,18.10
2022-10-18T19:01:37.029Z,16.60
2022-10-18T19:04:07.234Z,16.50
2022-10-18T19:06:40.971Z,16.00
2022-10-18T19:11:47.263Z,16.70
2022-10-18T19:14:15.722Z,17.80
2022-10-18T19:16:51.837Z,16.50
2022-10-18T19:19:24.553Z,16.90
2022-10-18T19:22:00.011Z,16.70
2022-10-18T19:24:30.452Z,16.90
2022-10-18T19:27:03.178Z,17.20
2022-10-18T19:29:33.131Z,16.60
2022-10-18T19:32:03.096Z,17.60
2022-10-18T19:34:32.247Z,17.60
2022-10-18T19:37:01.082Z,16.50
2022-10-18T19:39:31.897Z,15.80
2022-10-18T19:42:03.418Z,15.60
2022-10-18T19:44:33.805Z,15.30
2022-10-18T19:47:03.017Z,16.90
2022-10-18T19:49:30.850Z,15.00
2022-10-18T19:51:58.986Z,13.80
2022-10-18T19:54:27.041Z,14.50
2022-10-18T19:56:54.972Z,14.70
2022-10-18T19:59:24.095Z,13.90
2022-10-18T20:01:51.927Z,14.00
2022-10-18T20:04:19.785Z,12.90
2022-10-18T20:06:48.012Z,13.10
2022-10-18T20:09:19.417Z,16.00
2022-10-18T20:11:48.821Z,16.40
2022-10-18T20:14:16.615Z,15.30
2022-10-18T20:16:44.398Z,15.10
2022-10-18T20:19:12.221Z,15.40
2022-10-18T20:21:40.073Z,16.60
2022-10-18T20:24:09.269Z,17.50
2022-10-18T20:26:37.212Z,14.30
2022-10-18T20:29:05.565Z,13.20
2022-10-18T20:31:37.205Z,12.20
2022-10-18T20:34:07.792Z,10.60
2022-10-18T20:36:35.932Z,11.20
2022-10-18T20:39:05.549Z,12.20
2022-10-18T20:41:36.506Z,11.30
2022-10-18T20:44:10.737Z,11.60
2022-10-18T20:46:39.079Z,12.00
2022-10-18T20:49:08.589Z,12.40
2022-10-18T20:51:36.303Z,13.80
2022-10-18T20:56:39.060Z,16.00
2022-10-18T20:59:09.685Z,15.80
2022-10-18T21:01:39.274Z,15.00
2022-10-18T21:04:09.227Z,15.60
2022-10-18T21:06:47.680Z,16.30
2022-10-18T21:09:18.464Z,16.90
2022-10-18T21:11:49.409Z,15.60
2022-10-18T21:14:19.837Z,16.10
2022-10-18T21:16:49.500Z,14.20
2022-10-18T21:19:22.066Z,13.40
2022-10-18T21:21:52.466Z,10.80
2022-10-18T21:24:23.111Z,9.80
2022-10-18T21:26:51.017Z,9.30
2022-10-18T21:29:22.328Z,9.80
2022-10-18T21:31:55.361Z,9.00
2022-10-18T21:34:23.155Z,9.60
2022-10-18T21:36:50.972Z,9.50
2022-10-18T21:39:21.913Z,9.30
2022-10-18T21:41:50.613Z,8.90
2022-10-18T21:44:18.575Z,9.30
2022-10-18T21:46:46.898Z,10.10
2022-10-18T21:49:15.744Z,9.90
2022-10-18T21:51:44.311Z,10.50
2022-10-18T21:54:14.412Z,9.60
2022-10-18T21:56:42.263Z,10.40
2022-10-18T21:59:13.793Z,10.20
2022-10-18T22:01:43.667Z,11.10
2022-10-18T22:04:40.557Z,11.50
2022-10-18T22:07:08.259Z,9.40
2022-10-18T22:09:35.955Z,9.30
2022-10-18T22:12:03.958Z,9.30
2022-10-18T22:14:31.912Z,9.90
2022-10-18T22:16:59.668Z,9.70
2022-10-18T22:19:27.389Z,10.10
2022-10-18T22:21:55.109Z,8.80
2022-10-18T22:24:22.882Z,8.60
2022-10-18T22:26:51.284Z,9.40
2022-10-18T22:29:21.505Z,9.20
2022-10-18T22:31:52.208Z,9.10
2022-10-18T22:34:27.611Z,10.10
2022-10-18T22:36:56.271Z,9.00
2022-10-18T22:39:24.770Z,9.20
2022-10-18T22:41:55.865Z,9.30
2022-10-18T22:44:24.277Z,9.00
2022-10-18T22:46:52.155Z,9.10
2022-10-18T22:49:19.844Z,8.60
2022-10-18T22:51:47.555Z,8.50
2022-10-18T22:54:15.385Z,9.40
2022-10-18T22:56:43.333Z,8.70
2022-10-18T22:59:11.178Z,9.20
2022-10-18T23:01:38.878Z,10.00
2022-10-18T23:04:06.636Z,9.10
2022-10-18T23:06:36.271Z,9.50
2022-10-18T23:09:07.079Z,9.80
2022-10-18T23:11:36.298Z,10.00
2022-10-18T23:14:06.200Z,9.60
2022-10-18T23:16:34.505Z,9.30
2022-10-18T23:19:03.126Z,10.00
2022-10-18T23:21:31.151Z,8.80
2022-10-18T23:23:58.999Z,9.30
2022-10-18T23:26:28.130Z,10.10
2022-10-18T23:28:56.503Z,9.40
2022-10-18T23:31:30.045Z,9.80
2022-10-18T23:34:01.733Z,9.70
2022-10-18T23:36:31.339Z,8.90
2022-10-18T23:38:59.254Z,9.60
2022-10-18T23:41:27.118Z,9.30
2022-10-18T23:43:55.603Z,8.50
2022-10-18T23:46:23.424Z,7.90
2022-10-18T23:48:51.284Z,8.10
2022-10-18T23:51:19.076Z,9.10
2022-10-18T23:53:47.003Z,8.10
2022-10-18T23:56:16.308Z,8.80
2022-10-18T23:58:45.637Z,8.40
